Terminal Aerodrome Forecast
Issued by NWS

Current Version | Previous Version | Text Only | Print | Product List | Glossary Off
Versions: 1 2 3 4 5 6 7 8 9 10 11 12 13 14 15 16 17 18 19 20 21 22 23 24 25 26 27 28 29 30 31 32 33

201
FTUS41 KRNK 031720
TAFLWB
TAF
KLWB 031720Z 0318/0418 23012G22KT 5SM -SHRA BR SCT005 SCT015 BKN035
      TEMPO 0320/0324 2SM BR OVC015
     FM040000 VRB03KT 1SM -SHRA BR OVC005
     FM040800 29006KT P6SM -SHSN OVC015
     FM041500 30010KT P6SM BKN025=

USA.gov is the U.S. government's official web portal to all federal, state and local government web resources and services.